Innisfail, Canada
Current Conditions -  °F | °C
As of 1:00 PM on Tuesday 27 Jan 2015 (Local Time) from CYQF Reporting Station
Broken Clouds Broken Clouds  
Wind Chill: 22°   Ceiling: 25000
Heat Index: 28°   Visibility: 8mi
Dew Point: 25°   Wind: 6mph
Humidity: 86%   Direction: 330°NNW
Pressure: 29.75"   Gusts: NA
Location:  52.03°N, 113.95°W
Report Text: CYQF 272000Z 33005KT 8SM FEW100 BKN250 M02/M04 A2975 RMK AC1CI5 VIS S 4 SLP117
Loading
Personal Weather Stations






























Interactive Weather Map New forecast layout! Learn more

10-Day Weather Forecast

Advertisements
Track Severe Weather on mobile